sensor_id;sensor_type;location;lat;lon;timestamp;P1;durP1;ratioP1;P2;durP2;ratioP2
75620;SDS011;64574;48.506;-2.750;2022-12-29T00:02:03;8.93;;;1.50;;
75620;SDS011;64574;48.506;-2.750;2022-12-29T00:04:29;7.82;;;1.30;;
75620;SDS011;64574;48.506;-2.750;2022-12-29T00:06:55;8.05;;;1.77;;
75620;SDS011;64574;48.506;-2.750;2022-12-29T00:09:20;8.75;;;1.33;;
75620;SDS011;64574;48.506;-2.750;2022-12-29T00:11:46;7.72;;;2.10;;
75620;SDS011;64574;48.506;-2.750;2022-12-29T00:14:12;10.38;;;1.50;;
75620;SDS011;64574;48.506;-2.750;2022-12-29T00:16:57;10.85;;;3.05;;
75620;SDS011;64574;48.506;-2.750;2022-12-29T00:19:22;4.93;;;0.98;;
75620;SDS011;64574;48.506;-2.750;2022-12-29T00:22:08;9.25;;;1.25;;
75620;SDS011;64574;48.506;-2.750;2022-12-29T00:24:54;5.60;;;1.13;;
75620;SDS011;64574;48.506;-2.750;2022-12-29T00:27:38;9.70;;;1.30;;
75620;SDS011;64574;48.506;-2.750;2022-12-29T00:30:23;6.32;;;1.25;;
75620;SDS011;64574;48.506;-2.750;2022-12-29T00:33:18;13.05;;;1.63;;
75620;SDS011;64574;48.506;-2.750;2022-12-29T00:36:08;8.93;;;1.20;;
75620;SDS011;64574;48.506;-2.750;2022-12-29T00:38:38;7.60;;;1.25;;
75620;SDS011;64574;48.506;-2.750;2022-12-29T00:41:25;9.77;;;1.33;;
75620;SDS011;64574;48.506;-2.750;2022-12-29T00:44:10;7.28;;;1.20;;
75620;SDS011;64574;48.506;-2.750;2022-12-29T00:46:38;6.18;;;0.95;;
75620;SDS011;64574;48.506;-2.750;2022-12-29T00:49:05;6.25;;;0.85;;
75620;SDS011;64574;48.506;-2.750;2022-12-29T00:51:51;7.25;;;1.00;;
75620;SDS011;64574;48.506;-2.750;2022-12-29T00:54:17;7.40;;;1.00;;
75620;SDS011;64574;48.506;-2.750;2022-12-29T00:56:45;5.22;;;1.13;;
75620;SDS011;64574;48.506;-2.750;2022-12-29T00:59:14;13.90;;;1.65;;
75620;SDS011;64574;48.506;-2.750;2022-12-29T01:01:40;6.25;;;1.33;;
75620;SDS011;64574;48.506;-2.750;2022-12-29T01:04:06;6.47;;;1.25;;
75620;SDS011;64574;48.506;-2.750;2022-12-29T01:06:32;6.22;;;2.17;;
75620;SDS011;64574;48.506;-2.750;2022-12-29T01:08:59;8.68;;;1.55;;
75620;SDS011;64574;48.506;-2.750;2022-12-29T01:11:43;10.50;;;1.42;;
75620;SDS011;64574;48.506;-2.750;2022-12-29T01:14:09;8.05;;;1.67;;
75620;SDS011;64574;48.506;-2.750;2022-12-29T01:16:35;9.80;;;1.98;;
75620;SDS011;64574;48.506;-2.750;2022-12-29T01:19:01;13.55;;;1.45;;
75620;SDS011;64574;48.506;-2.750;2022-12-29T01:21:27;7.50;;;1.33;;
75620;SDS011;64574;48.506;-2.750;2022-12-29T01:23:53;8.82;;;1.48;;
75620;SDS011;64574;48.506;-2.750;2022-12-29T01:26:18;12.55;;;2.05;;
75620;SDS011;64574;48.506;-2.750;2022-12-29T01:28:44;11.48;;;1.20;;
75620;SDS011;64574;48.506;-2.750;2022-12-29T01:31:11;10.50;;;1.92;;
75620;SDS011;64574;48.506;-2.750;2022-12-29T01:36:04;12.35;;;1.75;;
75620;SDS011;64574;48.506;-2.750;2022-12-29T01:38:32;7.97;;;1.85;;
75620;SDS011;64574;48.506;-2.750;2022-12-29T01:40:58;13.15;;;1.52;;
75620;SDS011;64574;48.506;-2.750;2022-12-29T01:48:39;5.80;;;1.45;;
75620;SDS011;64574;48.506;-2.750;2022-12-29T01:51:05;9.05;;;1.50;;
75620;SDS011;64574;48.506;-2.750;2022-12-29T01:53:32;9.48;;;1.85;;
75620;SDS011;64574;48.506;-2.750;2022-12-29T01:56:01;7.40;;;1.50;;
75620;SDS011;64574;48.506;-2.750;2022-12-29T01:58:32;12.10;;;1.90;;
75620;SDS011;64574;48.506;-2.750;2022-12-29T02:01:06;10.73;;;1.58;;
75620;SDS011;64574;48.506;-2.750;2022-12-29T02:03:32;13.30;;;1.40;;
75620;SDS011;64574;48.506;-2.750;2022-12-29T02:06:02;7.32;;;1.35;;
75620;SDS011;64574;48.506;-2.750;2022-12-29T02:08:29;9.05;;;1.55;;
75620;SDS011;64574;48.506;-2.750;2022-12-29T02:10:55;8.95;;;1.60;;
75620;SDS011;64574;48.506;-2.750;2022-12-29T02:13:23;17.92;;;1.75;;
75620;SDS011;64574;48.506;-2.750;2022-12-29T02:16:05;7.57;;;1.15;;
75620;SDS011;64574;48.506;-2.750;2022-12-29T02:18:51;11.13;;;1.60;;
75620;SDS011;64574;48.506;-2.750;2022-12-29T02:21:49;9.00;;;1.45;;
75620;SDS011;64574;48.506;-2.750;2022-12-29T02:32:39;9.90;;;1.40;;
75620;SDS011;64574;48.506;-2.750;2022-12-29T02:37:53;9.30;;;1.52;;
75620;SDS011;64574;48.506;-2.750;2022-12-29T02:40:55;9.35;;;1.02;;
75620;SDS011;64574;48.506;-2.750;2022-12-29T02:46:09;11.73;;;1.48;;
75620;SDS011;64574;48.506;-2.750;2022-12-29T02:49:05;14.00;;;1.60;;
75620;SDS011;64574;48.506;-2.750;2022-12-29T02:51:41;10.52;;;1.23;;
75620;SDS011;64574;48.506;-2.750;2022-12-29T02:54:26;9.98;;;1.75;;
75620;SDS011;64574;48.506;-2.750;2022-12-29T02:59:56;8.85;;;1.63;;
75620;SDS011;64574;48.506;-2.750;2022-12-29T03:13:06;10.98;;;1.50;;
75620;SDS011;64574;48.506;-2.750;2022-12-29T03:18:38;9.43;;;1.58;;
75620;SDS011;64574;48.506;-2.750;2022-12-29T03:21:27;12.40;;;2.00;;
75620;SDS011;64574;48.506;-2.750;2022-12-29T03:24:17;12.75;;;2.17;;
75620;SDS011;64574;48.506;-2.750;2022-12-29T03:26:47;11.82;;;1.30;;
75620;SDS011;64574;48.506;-2.750;2022-12-29T03:29:13;8.65;;;1.73;;
75620;SDS011;64574;48.506;-2.750;2022-12-29T03:31:42;11.35;;;1.33;;
75620;SDS011;64574;48.506;-2.750;2022-12-29T03:34:08;11.05;;;1.40;;
75620;SDS011;64574;48.506;-2.750;2022-12-29T03:36:39;14.80;;;1.85;;
75620;SDS011;64574;48.506;-2.750;2022-12-29T03:39:12;10.93;;;1.65;;
75620;SDS011;64574;48.506;-2.750;2022-12-29T03:41:40;13.45;;;1.77;;
75620;SDS011;64574;48.506;-2.750;2022-12-29T03:44:08;7.30;;;1.58;;
75620;SDS011;64574;48.506;-2.750;2022-12-29T03:46:34;13.85;;;2.22;;
75620;SDS011;64574;48.506;-2.750;2022-12-29T03:49:00;14.68;;;1.63;;
75620;SDS011;64574;48.506;-2.750;2022-12-29T03:51:25;13.98;;;1.60;;
75620;SDS011;64574;48.506;-2.750;2022-12-29T03:53:51;7.60;;;1.42;;
75620;SDS011;64574;48.506;-2.750;2022-12-29T03:56:16;12.60;;;1.60;;
75620;SDS011;64574;48.506;-2.750;2022-12-29T03:58:42;13.45;;;1.83;;
75620;SDS011;64574;48.506;-2.750;2022-12-29T04:01:08;11.85;;;2.25;;
75620;SDS011;64574;48.506;-2.750;2022-12-29T04:03:33;12.32;;;1.83;;
75620;SDS011;64574;48.506;-2.750;2022-12-29T04:05:59;10.88;;;2.22;;
75620;SDS011;64574;48.506;-2.750;2022-12-29T04:08:25;9.32;;;1.83;;
75620;SDS011;64574;48.506;-2.750;2022-12-29T04:10:51;13.73;;;2.25;;
75620;SDS011;64574;48.506;-2.750;2022-12-29T04:13:16;11.80;;;1.67;;
75620;SDS011;64574;48.506;-2.750;2022-12-29T04:15:43;14.48;;;2.08;;
75620;SDS011;64574;48.506;-2.750;2022-12-29T04:18:10;7.82;;;1.50;;
75620;SDS011;64574;48.506;-2.750;2022-12-29T04:20:36;11.98;;;1.52;;
75620;SDS011;64574;48.506;-2.750;2022-12-29T04:23:20;12.38;;;1.73;;
75620;SDS011;64574;48.506;-2.750;2022-12-29T04:25:46;11.70;;;1.92;;
75620;SDS011;64574;48.506;-2.750;2022-12-29T04:28:14;10.65;;;1.48;;
75620;SDS011;64574;48.506;-2.750;2022-12-29T04:30:41;11.80;;;1.60;;
75620;SDS011;64574;48.506;-2.750;2022-12-29T04:33:07;16.63;;;2.03;;
75620;SDS011;64574;48.506;-2.750;2022-12-29T04:35:33;12.10;;;1.40;;
75620;SDS011;64574;48.506;-2.750;2022-12-29T04:37:58;10.38;;;1.45;;
75620;SDS011;64574;48.506;-2.750;2022-12-29T04:40:24;14.85;;;1.95;;
75620;SDS011;64574;48.506;-2.750;2022-12-29T04:42:50;11.40;;;1.70;;
75620;SDS011;64574;48.506;-2.750;2022-12-29T04:45:16;14.60;;;1.77;;
75620;SDS011;64574;48.506;-2.750;2022-12-29T04:47:41;8.60;;;1.67;;
75620;SDS011;64574;48.506;-2.750;2022-12-29T04:50:07;8.65;;;1.35;;
75620;SDS011;64574;48.506;-2.750;2022-12-29T04:52:33;17.35;;;2.10;;
75620;SDS011;64574;48.506;-2.750;2022-12-29T04:54:59;10.25;;;1.73;;
75620;SDS011;64574;48.506;-2.750;2022-12-29T04:57:25;11.52;;;1.98;;
75620;SDS011;64574;48.506;-2.750;2022-12-29T04:59:51;11.35;;;1.77;;
75620;SDS011;64574;48.506;-2.750;2022-12-29T05:02:16;11.63;;;1.50;;
75620;SDS011;64574;48.506;-2.750;2022-12-29T05:04:42;14.38;;;2.13;;
75620;SDS011;64574;48.506;-2.750;2022-12-29T05:07:08;10.55;;;1.40;;
75620;SDS011;64574;48.506;-2.750;2022-12-29T05:09:33;12.27;;;1.50;;
75620;SDS011;64574;48.506;-2.750;2022-12-29T05:11:59;12.32;;;1.38;;
75620;SDS011;64574;48.506;-2.750;2022-12-29T05:14:25;9.57;;;1.35;;
75620;SDS011;64574;48.506;-2.750;2022-12-29T05:16:50;13.82;;;2.13;;
75620;SDS011;64574;48.506;-2.750;2022-12-29T05:19:16;16.70;;;2.38;;
75620;SDS011;64574;48.506;-2.750;2022-12-29T05:21:42;12.07;;;1.48;;
75620;SDS011;64574;48.506;-2.750;2022-12-29T05:24:08;15.85;;;2.20;;
75620;SDS011;64574;48.506;-2.750;2022-12-29T05:26:34;10.65;;;2.00;;
75620;SDS011;64574;48.506;-2.750;2022-12-29T05:28:59;13.60;;;1.88;;
75620;SDS011;64574;48.506;-2.750;2022-12-29T05:31:25;11.80;;;1.95;;
75620;SDS011;64574;48.506;-2.750;2022-12-29T05:33:51;13.40;;;2.40;;
75620;SDS011;64574;48.506;-2.750;2022-12-29T05:36:17;13.23;;;1.60;;
75620;SDS011;64574;48.506;-2.750;2022-12-29T05:38:43;11.57;;;1.70;;
75620;SDS011;64574;48.506;-2.750;2022-12-29T05:41:09;12.95;;;1.80;;
75620;SDS011;64574;48.506;-2.750;2022-12-29T05:43:35;11.63;;;1.95;;
75620;SDS011;64574;48.506;-2.750;2022-12-29T05:46:00;14.13;;;1.75;;
75620;SDS011;64574;48.506;-2.750;2022-12-29T05:48:27;11.38;;;1.27;;
75620;SDS011;64574;48.506;-2.750;2022-12-29T05:50:53;13.75;;;1.45;;
75620;SDS011;64574;48.506;-2.750;2022-12-29T05:53:19;12.80;;;1.58;;
75620;SDS011;64574;48.506;-2.750;2022-12-29T05:55:46;8.93;;;1.25;;
75620;SDS011;64574;48.506;-2.750;2022-12-29T05:58:13;11.60;;;2.25;;
75620;SDS011;64574;48.506;-2.750;2022-12-29T06:00:39;10.95;;;2.05;;
75620;SDS011;64574;48.506;-2.750;2022-12-29T06:03:05;7.85;;;1.90;;
75620;SDS011;64574;48.506;-2.750;2022-12-29T06:05:30;8.95;;;1.25;;
75620;SDS011;64574;48.506;-2.750;2022-12-29T06:07:56;9.32;;;1.65;;
75620;SDS011;64574;48.506;-2.750;2022-12-29T06:10:22;12.30;;;1.83;;
75620;SDS011;64574;48.506;-2.750;2022-12-29T06:12:47;13.90;;;1.88;;
75620;SDS011;64574;48.506;-2.750;2022-12-29T06:15:13;9.95;;;1.65;;
75620;SDS011;64574;48.506;-2.750;2022-12-29T06:17:39;11.18;;;1.92;;
75620;SDS011;64574;48.506;-2.750;2022-12-29T06:20:05;15.05;;;2.08;;
75620;SDS011;64574;48.506;-2.750;2022-12-29T06:22:32;12.55;;;2.10;;
75620;SDS011;64574;48.506;-2.750;2022-12-29T06:24:58;7.53;;;1.50;;
75620;SDS011;64574;48.506;-2.750;2022-12-29T06:27:23;14.32;;;2.05;;
75620;SDS011;64574;48.506;-2.750;2022-12-29T06:29:49;9.90;;;1.80;;
75620;SDS011;64574;48.506;-2.750;2022-12-29T06:32:15;12.90;;;1.80;;
75620;SDS011;64574;48.506;-2.750;2022-12-29T06:34:41;8.50;;;2.00;;
75620;SDS011;64574;48.506;-2.750;2022-12-29T06:37:06;13.27;;;1.85;;
75620;SDS011;64574;48.506;-2.750;2022-12-29T06:39:32;13.88;;;2.88;;
75620;SDS011;64574;48.506;-2.750;2022-12-29T06:41:57;8.43;;;1.80;;
75620;SDS011;64574;48.506;-2.750;2022-12-29T06:44:23;14.23;;;2.13;;
75620;SDS011;64574;48.506;-2.750;2022-12-29T06:46:49;15.57;;;2.17;;
75620;SDS011;64574;48.506;-2.750;2022-12-29T06:49:15;14.15;;;2.25;;
75620;SDS011;64574;48.506;-2.750;2022-12-29T06:51:41;14.18;;;1.95;;
75620;SDS011;64574;48.506;-2.750;2022-12-29T06:54:06;13.85;;;2.83;;
75620;SDS011;64574;48.506;-2.750;2022-12-29T06:56:32;12.73;;;2.15;;
75620;SDS011;64574;48.506;-2.750;2022-12-29T06:58:57;16.65;;;3.17;;
75620;SDS011;64574;48.506;-2.750;2022-12-29T07:01:25;17.08;;;2.28;;
75620;SDS011;64574;48.506;-2.750;2022-12-29T07:03:50;11.77;;;2.10;;
75620;SDS011;64574;48.506;-2.750;2022-12-29T07:06:16;15.73;;;2.05;;
75620;SDS011;64574;48.506;-2.750;2022-12-29T07:08:42;18.35;;;2.85;;
75620;SDS011;64574;48.506;-2.750;2022-12-29T07:11:07;16.23;;;2.75;;
75620;SDS011;64574;48.506;-2.750;2022-12-29T07:13:33;18.10;;;2.22;;
75620;SDS011;64574;48.506;-2.750;2022-12-29T07:15:59;14.60;;;2.00;;
75620;SDS011;64574;48.506;-2.750;2022-12-29T07:18:29;17.05;;;2.20;;
75620;SDS011;64574;48.506;-2.750;2022-12-29T07:20:55;11.95;;;2.05;;
75620;SDS011;64574;48.506;-2.750;2022-12-29T07:23:20;15.02;;;2.15;;
75620;SDS011;64574;48.506;-2.750;2022-12-29T07:25:46;13.30;;;2.38;;
75620;SDS011;64574;48.506;-2.750;2022-12-29T07:28:12;13.43;;;2.28;;
75620;SDS011;64574;48.506;-2.750;2022-12-29T07:30:38;12.70;;;2.20;;
75620;SDS011;64574;48.506;-2.750;2022-12-29T07:33:04;13.60;;;1.88;;
75620;SDS011;64574;48.506;-2.750;2022-12-29T07:35:30;12.95;;;1.67;;
75620;SDS011;64574;48.506;-2.750;2022-12-29T07:37:56;12.38;;;1.65;;
75620;SDS011;64574;48.506;-2.750;2022-12-29T07:40:21;13.63;;;1.70;;
75620;SDS011;64574;48.506;-2.750;2022-12-29T07:42:47;10.18;;;2.03;;
75620;SDS011;64574;48.506;-2.750;2022-12-29T07:45:12;9.88;;;1.70;;
75620;SDS011;64574;48.506;-2.750;2022-12-29T07:47:38;12.95;;;1.92;;
75620;SDS011;64574;48.506;-2.750;2022-12-29T07:50:04;12.20;;;1.75;;
75620;SDS011;64574;48.506;-2.750;2022-12-29T07:52:30;16.00;;;2.20;;
75620;SDS011;64574;48.506;-2.750;2022-12-29T07:54:55;10.65;;;1.67;;
75620;SDS011;64574;48.506;-2.750;2022-12-29T07:57:24;11.90;;;1.52;;
75620;SDS011;64574;48.506;-2.750;2022-12-29T07:59:50;13.73;;;2.13;;
75620;SDS011;64574;48.506;-2.750;2022-12-29T08:02:15;12.15;;;2.17;;
75620;SDS011;64574;48.506;-2.750;2022-12-29T08:04:41;10.02;;;1.70;;
75620;SDS011;64574;48.506;-2.750;2022-12-29T08:07:06;11.98;;;2.78;;
75620;SDS011;64574;48.506;-2.750;2022-12-29T08:09:32;11.73;;;1.58;;
75620;SDS011;64574;48.506;-2.750;2022-12-29T08:11:58;11.80;;;2.30;;
75620;SDS011;64574;48.506;-2.750;2022-12-29T08:14:23;9.57;;;1.70;;
75620;SDS011;64574;48.506;-2.750;2022-12-29T08:16:49;9.93;;;1.45;;
75620;SDS011;64574;48.506;-2.750;2022-12-29T08:19:15;9.40;;;1.33;;
75620;SDS011;64574;48.506;-2.750;2022-12-29T08:21:40;15.77;;;2.17;;
75620;SDS011;64574;48.506;-2.750;2022-12-29T08:24:06;9.40;;;1.70;;
75620;SDS011;64574;48.506;-2.750;2022-12-29T08:26:33;8.88;;;1.98;;
75620;SDS011;64574;48.506;-2.750;2022-12-29T08:28:58;14.27;;;2.28;;
75620;SDS011;64574;48.506;-2.750;2022-12-29T08:31:24;12.15;;;2.25;;
75620;SDS011;64574;48.506;-2.750;2022-12-29T08:33:50;13.15;;;2.33;;
75620;SDS011;64574;48.506;-2.750;2022-12-29T08:36:16;8.63;;;1.65;;
75620;SDS011;64574;48.506;-2.750;2022-12-29T08:38:41;14.13;;;2.35;;
75620;SDS011;64574;48.506;-2.750;2022-12-29T08:41:07;15.15;;;2.13;;
75620;SDS011;64574;48.506;-2.750;2022-12-29T08:43:33;14.35;;;2.10;;
75620;SDS011;64574;48.506;-2.750;2022-12-29T08:45:58;12.93;;;1.98;;
75620;SDS011;64574;48.506;-2.750;2022-12-29T08:48:24;8.55;;;1.60;;
75620;SDS011;64574;48.506;-2.750;2022-12-29T08:50:50;15.38;;;2.08;;
75620;SDS011;64574;48.506;-2.750;2022-12-29T08:53:16;8.80;;;1.65;;
75620;SDS011;64574;48.506;-2.750;2022-12-29T08:55:46;10.57;;;1.40;;
75620;SDS011;64574;48.506;-2.750;2022-12-29T08:58:19;10.20;;;1.77;;
75620;SDS011;64574;48.506;-2.750;2022-12-29T09:00:44;7.20;;;1.77;;
75620;SDS011;64574;48.506;-2.750;2022-12-29T09:03:10;10.70;;;1.48;;
75620;SDS011;64574;48.506;-2.750;2022-12-29T09:05:36;11.23;;;1.42;;
75620;SDS011;64574;48.506;-2.750;2022-12-29T09:08:01;11.57;;;2.00;;
75620;SDS011;64574;48.506;-2.750;2022-12-29T09:10:27;12.45;;;1.92;;
75620;SDS011;64574;48.506;-2.750;2022-12-29T09:12:53;13.68;;;2.33;;
75620;SDS011;64574;48.506;-2.750;2022-12-29T09:15:19;11.40;;;1.95;;
75620;SDS011;64574;48.506;-2.750;2022-12-29T09:17:44;14.63;;;1.88;;
75620;SDS011;64574;48.506;-2.750;2022-12-29T09:20:14;9.95;;;1.60;;
75620;SDS011;64574;48.506;-2.750;2022-12-29T09:22:42;14.43;;;1.95;;
75620;SDS011;64574;48.506;-2.750;2022-12-29T09:25:08;12.95;;;2.08;;
75620;SDS011;64574;48.506;-2.750;2022-12-29T09:27:35;11.85;;;1.73;;
75620;SDS011;64574;48.506;-2.750;2022-12-29T09:30:05;14.68;;;2.20;;
75620;SDS011;64574;48.506;-2.750;2022-12-29T09:32:32;12.98;;;1.50;;
75620;SDS011;64574;48.506;-2.750;2022-12-29T09:34:59;11.48;;;1.45;;
75620;SDS011;64574;48.506;-2.750;2022-12-29T09:37:24;9.68;;;1.50;;
75620;SDS011;64574;48.506;-2.750;2022-12-29T09:39:50;9.85;;;1.52;;
75620;SDS011;64574;48.506;-2.750;2022-12-29T09:42:21;9.75;;;1.80;;
75620;SDS011;64574;48.506;-2.750;2022-12-29T09:47:20;10.82;;;3.00;;
75620;SDS011;64574;48.506;-2.750;2022-12-29T09:49:48;8.23;;;1.60;;
75620;SDS011;64574;48.506;-2.750;2022-12-29T09:52:20;9.38;;;2.15;;
75620;SDS011;64574;48.506;-2.750;2022-12-29T09:57:29;12.70;;;2.72;;
75620;SDS011;64574;48.506;-2.750;2022-12-29T10:00:13;10.60;;;1.58;;
75620;SDS011;64574;48.506;-2.750;2022-12-29T10:02:46;10.68;;;2.08;;
75620;SDS011;64574;48.506;-2.750;2022-12-29T10:08:05;11.90;;;1.77;;
75620;SDS011;64574;48.506;-2.750;2022-12-29T10:10:43;11.20;;;2.42;;
75620;SDS011;64574;48.506;-2.750;2022-12-29T10:24:39;14.98;;;2.53;;
75620;SDS011;64574;48.506;-2.750;2022-12-29T10:27:10;9.25;;;1.55;;
75620;SDS011;64574;48.506;-2.750;2022-12-29T10:29:39;9.20;;;1.55;;
75620;SDS011;64574;48.506;-2.750;2022-12-29T10:35:20;12.05;;;1.95;;
75620;SDS011;64574;48.506;-2.750;2022-12-29T10:38:01;10.18;;;1.92;;
75620;SDS011;64574;48.506;-2.750;2022-12-29T10:43:26;6.85;;;1.50;;
75620;SDS011;64574;48.506;-2.750;2022-12-29T10:45:57;14.27;;;1.88;;
75620;SDS011;64574;48.506;-2.750;2022-12-29T10:48:33;9.98;;;1.60;;
75620;SDS011;64574;48.506;-2.750;2022-12-29T10:51:01;10.20;;;1.48;;
75620;SDS011;64574;48.506;-2.750;2022-12-29T10:53:38;12.40;;;1.95;;
75620;SDS011;64574;48.506;-2.750;2022-12-29T10:56:53;12.55;;;1.95;;
75620;SDS011;64574;48.506;-2.750;2022-12-29T10:59:10;14.52;;;1.73;;
75620;SDS011;64574;48.506;-2.750;2022-12-29T11:01:46;11.02;;;1.63;;
75620;SDS011;64574;48.506;-2.750;2022-12-29T11:07:07;12.43;;;2.10;;
75620;SDS011;64574;48.506;-2.750;2022-12-29T11:09:35;10.23;;;1.50;;
75620;SDS011;64574;48.506;-2.750;2022-12-29T11:12:17;12.20;;;1.65;;
75620;SDS011;64574;48.506;-2.750;2022-12-29T11:14:46;13.35;;;2.28;;
75620;SDS011;64574;48.506;-2.750;2022-12-29T11:17:16;8.40;;;1.23;;
75620;SDS011;64574;48.506;-2.750;2022-12-29T11:19:43;10.98;;;1.67;;
75620;SDS011;64574;48.506;-2.750;2022-12-29T11:22:13;11.02;;;1.90;;
75620;SDS011;64574;48.506;-2.750;2022-12-29T11:24:48;12.93;;;1.73;;
75620;SDS011;64574;48.506;-2.750;2022-12-29T11:27:17;8.05;;;1.63;;
75620;SDS011;64574;48.506;-2.750;2022-12-29T11:29:49;7.97;;;1.50;;
75620;SDS011;64574;48.506;-2.750;2022-12-29T11:39:52;12.40;;;2.05;;
75620;SDS011;64574;48.506;-2.750;2022-12-29T11:42:23;7.75;;;1.70;;
75620;SDS011;64574;48.506;-2.750;2022-12-29T11:44:59;10.52;;;1.52;;
75620;SDS011;64574;48.506;-2.750;2022-12-29T11:47:44;10.73;;;1.50;;
75620;SDS011;64574;48.506;-2.750;2022-12-29T11:50:17;7.80;;;1.70;;
75620;SDS011;64574;48.506;-2.750;2022-12-29T11:52:49;12.10;;;2.05;;
75620;SDS011;64574;48.506;-2.750;2022-12-29T11:57:50;13.05;;;1.95;;
75620;SDS011;64574;48.506;-2.750;2022-12-29T12:00:20;11.10;;;1.80;;
75620;SDS011;64574;48.506;-2.750;2022-12-29T12:05:23;7.53;;;1.60;;
75620;SDS011;64574;48.506;-2.750;2022-12-29T12:08:12;10.73;;;1.23;;
75620;SDS011;64574;48.506;-2.750;2022-12-29T12:16:22;5.20;;;1.60;;
75620;SDS011;64574;48.506;-2.750;2022-12-29T12:18:55;7.85;;;1.33;;
75620;SDS011;64574;48.506;-2.750;2022-12-29T12:21:32;8.43;;;1.33;;
75620;SDS011;64574;48.506;-2.750;2022-12-29T12:30:00;6.03;;;1.23;;
75620;SDS011;64574;48.506;-2.750;2022-12-29T12:34:53;6.15;;;1.02;;
75620;SDS011;64574;48.506;-2.750;2022-12-29T12:46:00;3.00;;;0.70;;
75620;SDS011;64574;48.506;-2.750;2022-12-29T13:00:16;4.10;;;1.15;;
75620;SDS011;64574;48.506;-2.750;2022-12-29T13:19:12;3.95;;;1.23;;
75620;SDS011;64574;48.506;-2.750;2022-12-29T13:21:57;6.30;;;1.23;;
75620;SDS011;64574;48.506;-2.750;2022-12-29T13:30:21;4.03;;;0.60;;
75620;SDS011;64574;48.506;-2.750;2022-12-29T13:32:59;3.92;;;0.70;;
75620;SDS011;64574;48.506;-2.750;2022-12-29T13:38:34;3.22;;;0.60;;
75620;SDS011;64574;48.506;-2.750;2022-12-29T13:41:09;5.63;;;0.60;;
75620;SDS011;64574;48.506;-2.750;2022-12-29T13:43:39;5.55;;;0.50;;
75620;SDS011;64574;48.506;-2.750;2022-12-29T13:46:18;2.13;;;0.90;;
75620;SDS011;64574;48.506;-2.750;2022-12-29T13:48:55;1.92;;;0.63;;
75620;SDS011;64574;48.506;-2.750;2022-12-29T13:51:27;3.50;;;0.70;;
75620;SDS011;64574;48.506;-2.750;2022-12-29T13:56:30;4.40;;;0.70;;
75620;SDS011;64574;48.506;-2.750;2022-12-29T13:59:10;3.63;;;0.77;;
75620;SDS011;64574;48.506;-2.750;2022-12-29T14:04:29;2.25;;;0.55;;
75620;SDS011;64574;48.506;-2.750;2022-12-29T14:07:19;2.50;;;0.70;;
75620;SDS011;64574;48.506;-2.750;2022-12-29T14:09:47;1.85;;;0.63;;
75620;SDS011;64574;48.506;-2.750;2022-12-29T14:14:46;4.60;;;1.20;;
75620;SDS011;64574;48.506;-2.750;2022-12-29T14:17:16;2.60;;;0.85;;
75620;SDS011;64574;48.506;-2.750;2022-12-29T14:19:44;3.10;;;1.00;;
75620;SDS011;64574;48.506;-2.750;2022-12-29T14:22:11;3.03;;;0.65;;
75620;SDS011;64574;48.506;-2.750;2022-12-29T14:32:09;5.72;;;0.85;;
75620;SDS011;64574;48.506;-2.750;2022-12-29T14:39:49;6.95;;;1.00;;
75620;SDS011;64574;48.506;-2.750;2022-12-29T14:42:48;7.47;;;1.05;;
75620;SDS011;64574;48.506;-2.750;2022-12-29T14:47:48;2.85;;;0.50;;
75620;SDS011;64574;48.506;-2.750;2022-12-29T14:53:06;2.95;;;0.73;;
75620;SDS011;64574;48.506;-2.750;2022-12-29T14:55:55;5.13;;;0.88;;
75620;SDS011;64574;48.506;-2.750;2022-12-29T14:58:25;4.35;;;0.70;;
75620;SDS011;64574;48.506;-2.750;2022-12-29T15:00:51;3.50;;;0.77;;
75620;SDS011;64574;48.506;-2.750;2022-12-29T15:05:47;4.82;;;0.98;;
75620;SDS011;64574;48.506;-2.750;2022-12-29T15:08:17;3.58;;;0.73;;
75620;SDS011;64574;48.506;-2.750;2022-12-29T15:10:47;1.95;;;0.55;;
75620;SDS011;64574;48.506;-2.750;2022-12-29T15:13:22;3.47;;;0.70;;
75620;SDS011;64574;48.506;-2.750;2022-12-29T15:15:50;4.57;;;1.52;;
75620;SDS011;64574;48.506;-2.750;2022-12-29T15:20:52;2.22;;;0.63;;
75620;SDS011;64574;48.506;-2.750;2022-12-29T15:23:20;3.47;;;0.68;;
75620;SDS011;64574;48.506;-2.750;2022-12-29T15:26:07;4.15;;;0.80;;
75620;SDS011;64574;48.506;-2.750;2022-12-29T15:28:37;3.15;;;0.77;;
75620;SDS011;64574;48.506;-2.750;2022-12-29T15:31:06;2.70;;;0.80;;
75620;SDS011;64574;48.506;-2.750;2022-12-29T15:33:47;7.05;;;1.20;;
75620;SDS011;64574;48.506;-2.750;2022-12-29T15:36:25;5.45;;;1.10;;
75620;SDS011;64574;48.506;-2.750;2022-12-29T15:38:52;6.50;;;1.83;;
75620;SDS011;64574;48.506;-2.750;2022-12-29T15:46:45;5.10;;;1.15;;
75620;SDS011;64574;48.506;-2.750;2022-12-29T15:49:11;4.50;;;1.17;;
75620;SDS011;64574;48.506;-2.750;2022-12-29T15:51:39;4.13;;;1.40;;
75620;SDS011;64574;48.506;-2.750;2022-12-29T15:54:05;5.30;;;1.30;;
75620;SDS011;64574;48.506;-2.750;2022-12-29T15:56:40;2.00;;;0.77;;
75620;SDS011;64574;48.506;-2.750;2022-12-29T15:59:18;6.65;;;2.03;;
75620;SDS011;64574;48.506;-2.750;2022-12-29T16:01:53;6.63;;;1.70;;
75620;SDS011;64574;48.506;-2.750;2022-12-29T16:04:23;5.03;;;1.63;;
75620;SDS011;64574;48.506;-2.750;2022-12-29T16:06:58;6.00;;;1.73;;
75620;SDS011;64574;48.506;-2.750;2022-12-29T16:09:29;3.55;;;0.85;;
75620;SDS011;64574;48.506;-2.750;2022-12-29T16:12:02;3.20;;;1.05;;
75620;SDS011;64574;48.506;-2.750;2022-12-29T16:17:05;3.85;;;0.82;;
75620;SDS011;64574;48.506;-2.750;2022-12-29T16:19:37;5.60;;;1.00;;
75620;SDS011;64574;48.506;-2.750;2022-12-29T16:22:11;4.28;;;1.10;;
75620;SDS011;64574;48.506;-2.750;2022-12-29T16:24:42;3.42;;;0.90;;
75620;SDS011;64574;48.506;-2.750;2022-12-29T16:27:16;5.78;;;1.25;;
75620;SDS011;64574;48.506;-2.750;2022-12-29T16:29:48;2.88;;;0.90;;
75620;SDS011;64574;48.506;-2.750;2022-12-29T16:34:48;3.95;;;0.98;;
75620;SDS011;64574;48.506;-2.750;2022-12-29T16:37:27;2.53;;;0.73;;
75620;SDS011;64574;48.506;-2.750;2022-12-29T16:42:54;3.90;;;0.80;;
75620;SDS011;64574;48.506;-2.750;2022-12-29T16:47:48;3.67;;;0.88;;
75620;SDS011;64574;48.506;-2.750;2022-12-29T16:50:30;3.05;;;0.90;;
75620;SDS011;64574;48.506;-2.750;2022-12-29T16:55:23;2.95;;;0.68;;
75620;SDS011;64574;48.506;-2.750;2022-12-29T16:57:49;3.30;;;0.70;;
75620;SDS011;64574;48.506;-2.750;2022-12-29T17:00:28;3.50;;;0.80;;
75620;SDS011;64574;48.506;-2.750;2022-12-29T17:02:59;3.08;;;0.90;;
75620;SDS011;64574;48.506;-2.750;2022-12-29T17:05:26;4.22;;;1.45;;
75620;SDS011;64574;48.506;-2.750;2022-12-29T17:07:52;3.75;;;1.20;;
75620;SDS011;64574;48.506;-2.750;2022-12-29T17:10:18;8.15;;;1.92;;
75620;SDS011;64574;48.506;-2.750;2022-12-29T17:12:44;6.35;;;1.42;;
75620;SDS011;64574;48.506;-2.750;2022-12-29T17:15:23;2.90;;;1.25;;
75620;SDS011;64574;48.506;-2.750;2022-12-29T17:17:52;5.10;;;1.15;;
75620;SDS011;64574;48.506;-2.750;2022-12-29T17:20:21;5.75;;;1.15;;
75620;SDS011;64574;48.506;-2.750;2022-12-29T17:22:48;3.28;;;1.10;;
75620;SDS011;64574;48.506;-2.750;2022-12-29T17:25:19;4.47;;;1.20;;
75620;SDS011;64574;48.506;-2.750;2022-12-29T17:27:53;3.60;;;1.20;;
75620;SDS011;64574;48.506;-2.750;2022-12-29T17:30:23;5.30;;;1.60;;
75620;SDS011;64574;48.506;-2.750;2022-12-29T17:33:00;5.30;;;1.75;;
75620;SDS011;64574;48.506;-2.750;2022-12-29T17:35:28;3.58;;;1.40;;
75620;SDS011;64574;48.506;-2.750;2022-12-29T17:37:54;5.38;;;1.75;;
75620;SDS011;64574;48.506;-2.750;2022-12-29T17:40:23;6.82;;;1.80;;
75620;SDS011;64574;48.506;-2.750;2022-12-29T17:42:52;6.80;;;2.30;;
75620;SDS011;64574;48.506;-2.750;2022-12-29T17:45:23;6.40;;;2.30;;
75620;SDS011;64574;48.506;-2.750;2022-12-29T17:47:50;7.38;;;2.50;;
75620;SDS011;64574;48.506;-2.750;2022-12-29T17:50:17;5.85;;;2.25;;
75620;SDS011;64574;48.506;-2.750;2022-12-29T17:52:51;6.72;;;2.47;;